EGBB

Birmingham International Airport

Birmingham, United Kingdom
METAR EGBB 172120Z 09007KT CAVOK 06/05 Q1028
Observed Flight Rules
Nov-17 @ 21:20 UTC (26 minutes ago) Visual Flight Rules
Wind Visibility Clouds
90° at 7 knots 10,000+ meters
  • Clear skies
Temperatures Readings
Current 6°C / 43°F
Dewpoint 5°C / 41°F
Humidity 93%
Altimeter 30.35" Hg
Pressure 1028 hPa
Elevation 99
METAR EGBB 172120Z 09007KT CAVOK 06/05 Q1028
Observed Flight Rules
Nov-17 @ 21:20 UTC
(26 minutes ago)
VFR
Wind Visibility
90° at 7 knots 10,000+ meters
Clouds
  • Clear skies
Temperature Dewpoint
6°C / 43°F 5°C / 41°F
Humidity Altimeter Pressure
93% 30.35" Hg 1028 hPa